createdAt,value
2018-11-21T00:06:55.717Z,82.77
2018-11-21T00:17:13.898Z,82.88
2018-11-21T00:27:31.702Z,82.95
2018-11-21T00:37:49.699Z,82.60
2018-11-21T00:48:07.923Z,82.11
2018-11-21T00:58:25.582Z,82.33
2018-11-21T01:08:43.853Z,82.08
2018-11-21T01:19:02.531Z,82.09
2018-11-21T01:29:20.724Z,82.08
2018-11-21T01:39:39.252Z,81.89
2018-11-21T01:49:57.213Z,81.95
2018-11-21T02:00:15.487Z,82.54
2018-11-21T02:10:33.627Z,82.36
2018-11-21T02:20:52.881Z,81.66
2018-11-21T02:31:10.691Z,81.82
2018-11-21T02:41:29.075Z,81.84
2018-11-21T02:51:46.953Z,81.79
2018-11-21T03:02:05.294Z,81.76
2018-11-21T03:12:24.256Z,81.77
2018-11-21T03:22:42.112Z,82.07
2018-11-21T03:33:00.152Z,81.96
2018-11-21T03:43:18.403Z,82.40
2018-11-21T03:53:36.898Z,81.98
2018-11-21T04:03:55.122Z,81.84
2018-11-21T04:14:13.241Z,82.24
2018-11-21T04:24:31.212Z,82.40
2018-11-21T04:34:49.242Z,82.63
2018-11-21T04:45:08.262Z,82.83
2018-11-21T04:55:26.046Z,82.95
2018-11-21T05:05:44.477Z,82.71
2018-11-21T05:16:03.225Z,83.32
2018-11-21T05:26:21.411Z,82.64
2018-11-21T05:36:39.667Z,82.38
2018-11-21T05:46:58.217Z,81.64
2018-11-21T05:57:16.310Z,81.57
2018-11-21T06:07:34.256Z,81.87
2018-11-21T06:17:52.122Z,81.66
2018-11-21T06:28:09.987Z,81.94
2018-11-21T06:38:28.495Z,81.50
2018-11-21T06:48:47.102Z,81.71
2018-11-21T06:59:05.300Z,81.02
2018-11-21T07:09:23.260Z,81.26
2018-11-21T07:19:41.397Z,81.03
2018-11-21T07:29:59.341Z,80.82
2018-11-21T07:40:17.113Z,80.25
2018-11-21T07:50:35.207Z,78.94
2018-11-21T08:01:21.811Z,78.65
2018-11-21T08:11:57.387Z,77.93
2018-11-21T08:22:33.162Z,77.44
2018-11-21T08:32:51.276Z,77.20
2018-11-21T08:43:09.108Z,77.76
2018-11-21T08:53:26.790Z,76.89
2018-11-21T09:03:45.141Z,77.14
2018-11-21T09:14:03.061Z,76.88
2018-11-21T09:24:21.112Z,75.62
2018-11-21T09:34:41.922Z,74.94
2018-11-21T09:45:00.789Z,74.33
2018-11-21T09:55:18.944Z,74.93
2018-11-21T10:05:37.029Z,75.09
2018-11-21T10:15:55.034Z,75.53
2018-11-21T10:26:12.981Z,76.00
2018-11-21T10:36:30.790Z,75.36
2018-11-21T10:46:48.996Z,75.79
2018-11-21T10:57:06.970Z,74.18
2018-11-21T11:07:47.651Z,75.25
2018-11-21T11:18:23.175Z,75.97
2018-11-21T11:28:58.844Z,76.14
2018-11-21T11:39:51.236Z,76.89
2018-11-21T11:50:33.989Z,76.96
2018-11-21T12:01:19.912Z,77.32
2018-11-21T12:11:55.992Z,77.73
2018-11-21T12:22:32.781Z,78.23
2018-11-21T12:33:15.543Z,78.83
2018-11-21T12:43:48.465Z,78.63
2018-11-21T12:54:25.706Z,78.84
2018-11-21T13:05:11.246Z,78.75
2018-11-21T13:16:07.087Z,78.73
2018-11-21T13:26:50.439Z,78.96
2018-11-21T13:37:27.700Z,78.87
2018-11-21T13:48:04.913Z,78.66
2018-11-21T13:58:24.229Z,79.05
2018-11-21T14:08:42.157Z,78.63
2018-11-21T14:19:00.695Z,79.51
2018-11-21T14:29:19.144Z,80.32
2018-11-21T14:39:37.361Z,80.02
2018-11-21T14:49:57.971Z,79.65
2018-11-21T15:00:18.011Z,79.04
2018-11-21T15:10:35.985Z,80.56
2018-11-21T15:20:56.218Z,80.82
2018-11-21T15:31:12.061Z,80.11
2018-11-21T15:41:31.160Z,80.85
2018-11-21T15:51:49.229Z,80.88
2018-11-21T16:02:07.432Z,80.80
2018-11-21T16:12:25.926Z,80.53
2018-11-21T16:22:44.117Z,80.35
2018-11-21T16:33:02.176Z,81.63
2018-11-21T16:43:20.231Z,82.17
2018-11-21T16:53:38.388Z,83.22
2018-11-21T17:03:57.045Z,82.78
2018-11-21T17:14:15.205Z,83.26
2018-11-21T17:24:32.976Z,82.91
2018-11-21T17:34:51.764Z,83.19
2018-11-21T17:45:10.685Z,82.65
2018-11-21T17:55:29.882Z,83.17
2018-11-21T18:05:47.783Z,82.79
2018-11-21T18:16:05.704Z,82.06
2018-11-21T18:26:24.210Z,82.48
2018-11-21T18:36:42.504Z,82.29
2018-11-21T18:47:00.425Z,82.43
2018-11-21T18:57:51.014Z,83.06
2018-11-21T19:08:09.348Z,83.51
2018-11-21T19:18:27.706Z,84.38
2018-11-21T19:28:45.929Z,84.81
2018-11-21T19:39:05.704Z,84.73
2018-11-21T19:49:23.707Z,84.92
2018-11-21T19:59:43.588Z,84.41
2018-11-21T20:09:59.401Z,85.88
2018-11-21T20:20:19.178Z,86.22
2018-11-21T20:30:38.578Z,86.58
2018-11-21T20:40:56.250Z,86.51
2018-11-21T20:51:14.231Z,87.35
2018-11-21T21:01:32.051Z,87.67
2018-11-21T21:11:50.324Z,87.94
2018-11-21T21:22:08.798Z,88.40
2018-11-21T21:32:26.934Z,88.56
2018-11-21T21:42:45.747Z,89.06
2018-11-21T21:53:04.470Z,89.03
2018-11-21T22:03:22.985Z,88.66
2018-11-21T22:13:40.949Z,88.38
2018-11-21T22:23:59.708Z,88.58
2018-11-21T22:34:18.631Z,88.53
2018-11-21T22:44:36.326Z,88.50
2018-11-21T22:54:54.396Z,89.20
2018-11-21T23:05:12.763Z,89.01
2018-11-21T23:15:31.128Z,88.64
2018-11-21T23:25:49.197Z,89.50
2018-11-21T23:36:07.306Z,89.48
2018-11-21T23:46:26.033Z,89.59
2018-11-21T23:56:44.241Z,89.63
